sensor_id;sensor_type;location;lat;lon;timestamp;pressure;altitude;pressure_sealevel;temperature;humidity
45255;BME280;30989;52.078;21.014;2023-12-29T00:00:16;164586.81;;;3.19;100.00
45255;BME280;30989;52.078;21.014;2023-12-29T00:02:41;164598.81;;;3.24;100.00
45255;BME280;30989;52.078;21.014;2023-12-29T00:05:07;164592.16;;;3.21;100.00
45255;BME280;30989;52.078;21.014;2023-12-29T00:07:32;164578.81;;;3.16;100.00
45255;BME280;30989;52.078;21.014;2023-12-29T00:09:58;164576.16;;;3.15;100.00
45255;BME280;30989;52.078;21.014;2023-12-29T00:12:23;164564.16;;;3.11;100.00
45255;BME280;30989;52.078;21.014;2023-12-29T00:14:49;164553.50;;;3.07;100.00
45255;BME280;30989;52.078;21.014;2023-12-29T00:17:14;164552.16;;;3.06;100.00
45255;BME280;30989;52.078;21.014;2023-12-29T00:19:40;164546.84;;;3.04;100.00
45255;BME280;30989;52.078;21.014;2023-12-29T00:22:05;164538.84;;;3.01;100.00
45255;BME280;30989;52.078;21.014;2023-12-29T00:24:31;164544.16;;;3.03;100.00
45255;BME280;30989;52.078;21.014;2023-12-29T00:26:57;164544.16;;;3.03;100.00
45255;BME280;30989;52.078;21.014;2023-12-29T00:29:23;164537.50;;;3.01;100.00
45255;BME280;30989;52.078;21.014;2023-12-29T00:31:49;164536.19;;;3.00;100.00
45255;BME280;30989;52.078;21.014;2023-12-29T00:34:14;164545.50;;;3.04;100.00
45255;BME280;30989;52.078;21.014;2023-12-29T00:36:40;164537.50;;;3.01;100.00
45255;BME280;30989;52.078;21.014;2023-12-29T00:39:05;164545.50;;;3.04;100.00
45255;BME280;30989;52.078;21.014;2023-12-29T00:41:32;164536.19;;;3.00;100.00
45255;BME280;30989;52.078;21.014;2023-12-29T00:43:57;164542.84;;;3.03;100.00
45255;BME280;30989;52.078;21.014;2023-12-29T00:46:23;164542.84;;;3.03;100.00
45255;BME280;30989;52.078;21.014;2023-12-29T00:48:48;164544.16;;;3.03;100.00
45255;BME280;30989;52.078;21.014;2023-12-29T00:51:14;164558.81;;;3.09;100.00
45255;BME280;30989;52.078;21.014;2023-12-29T00:53:42;164568.16;;;3.12;100.00
45255;BME280;30989;52.078;21.014;2023-12-29T00:56:12;164569.50;;;3.13;100.00
45255;BME280;30989;52.078;21.014;2023-12-29T00:58:38;164570.81;;;3.13;100.00
45255;BME280;30989;52.078;21.014;2023-12-29T01:01:06;164562.81;;;3.10;100.00
45255;BME280;30989;52.078;21.014;2023-12-29T01:03:34;164562.81;;;3.10;100.00
45255;BME280;30989;52.078;21.014;2023-12-29T01:05:59;164566.81;;;3.12;100.00
45255;BME280;30989;52.078;21.014;2023-12-29T01:08:26;164548.16;;;3.05;100.00
45255;BME280;30989;52.078;21.014;2023-12-29T01:10:51;164554.84;;;3.07;100.00
45255;BME280;30989;52.078;21.014;2023-12-29T01:13:17;164553.50;;;3.07;100.00
45255;BME280;30989;52.078;21.014;2023-12-29T01:15:42;164544.16;;;3.03;100.00
45255;BME280;30989;52.078;21.014;2023-12-29T01:18:11;164561.50;;;3.10;100.00
45255;BME280;30989;52.078;21.014;2023-12-29T01:20:37;164550.84;;;3.06;100.00
45255;BME280;30989;52.078;21.014;2023-12-29T01:23:05;164542.84;;;3.03;100.00
45255;BME280;30989;52.078;21.014;2023-12-29T01:25:30;164540.16;;;3.02;100.00
45255;BME280;30989;52.078;21.014;2023-12-29T01:27:56;164534.84;;;3.00;100.00
45255;BME280;30989;52.078;21.014;2023-12-29T01:30:21;164534.84;;;3.00;100.00
45255;BME280;30989;52.078;21.014;2023-12-29T01:32:46;164518.84;;;2.94;100.00
45255;BME280;30989;52.078;21.014;2023-12-29T01:35:13;164509.53;;;2.90;100.00
45255;BME280;30989;52.078;21.014;2023-12-29T01:37:38;164512.19;;;2.91;100.00
45255;BME280;30989;52.078;21.014;2023-12-29T01:40:04;164492.22;;;2.83;100.00
45255;BME280;30989;52.078;21.014;2023-12-29T01:42:30;164493.53;;;2.84;100.00
45255;BME280;30989;52.078;21.014;2023-12-29T01:44:55;164460.22;;;2.71;100.00
45255;BME280;30989;52.078;21.014;2023-12-29T01:47:22;164462.91;;;2.72;100.00
45255;BME280;30989;52.078;21.014;2023-12-29T01:49:48;164473.56;;;2.76;100.00
45255;BME280;30989;52.078;21.014;2023-12-29T01:52:16;164465.56;;;2.73;100.00
45255;BME280;30989;52.078;21.014;2023-12-29T01:54:45;164453.56;;;2.69;100.00
45255;BME280;30989;52.078;21.014;2023-12-29T01:57:11;164452.25;;;2.68;100.00
45255;BME280;30989;52.078;21.014;2023-12-29T01:59:37;164444.25;;;2.65;100.00
45255;BME280;30989;52.078;21.014;2023-12-29T02:02:06;164444.25;;;2.65;100.00
45255;BME280;30989;52.078;21.014;2023-12-29T02:04:32;164420.25;;;2.56;100.00
45255;BME280;30989;52.078;21.014;2023-12-29T02:06:58;164420.25;;;2.56;100.00
45255;BME280;30989;52.078;21.014;2023-12-29T02:09:24;164422.94;;;2.57;100.00
45255;BME280;30989;52.078;21.014;2023-12-29T02:11:50;164417.59;;;2.55;100.00
45255;BME280;30989;52.078;21.014;2023-12-29T02:14:16;164414.94;;;2.54;100.00
45255;BME280;30989;52.078;21.014;2023-12-29T02:19:43;164404.28;;;2.50;100.00
45255;BME280;30989;52.078;21.014;2023-12-29T02:22:10;164393.63;;;2.46;100.00
45255;BME280;30989;52.078;21.014;2023-12-29T02:24:36;164372.31;;;2.38;100.00
45255;BME280;30989;52.078;21.014;2023-12-29T02:27:16;164372.31;;;2.38;100.00
45255;BME280;30989;52.078;21.014;2023-12-29T02:30:02;164348.34;;;2.29;100.00
45255;BME280;30989;52.078;21.014;2023-12-29T02:32:33;164352.34;;;2.30;100.00
45255;BME280;30989;52.078;21.014;2023-12-29T02:34:59;164336.34;;;2.24;100.00
45255;BME280;30989;52.078;21.014;2023-12-29T02:37:27;164329.69;;;2.21;100.00
45255;BME280;30989;52.078;21.014;2023-12-29T02:39:55;164312.38;;;2.15;100.00
45255;BME280;30989;52.078;21.014;2023-12-29T02:42:21;164309.72;;;2.14;100.00
45255;BME280;30989;52.078;21.014;2023-12-29T02:44:47;164292.41;;;2.07;100.00
45255;BME280;30989;52.078;21.014;2023-12-29T02:47:12;164293.72;;;2.08;100.00
45255;BME280;30989;52.078;21.014;2023-12-29T02:49:37;164288.41;;;2.06;100.00
45255;BME280;30989;52.078;21.014;2023-12-29T02:52:03;164284.41;;;2.04;100.00
45255;BME280;30989;52.078;21.014;2023-12-29T02:54:31;164281.75;;;2.03;100.00
45255;BME280;30989;52.078;21.014;2023-12-29T02:56:57;164273.75;;;2.00;100.00
45255;BME280;30989;52.078;21.014;2023-12-29T02:59:22;164269.75;;;1.99;100.00
45255;BME280;30989;52.078;21.014;2023-12-29T03:01:48;164264.44;;;1.97;100.00
45255;BME280;30989;52.078;21.014;2023-12-29T03:04:13;164256.44;;;1.93;100.00
45255;BME280;30989;52.078;21.014;2023-12-29T03:06:40;164248.47;;;1.90;100.00
45255;BME280;30989;52.078;21.014;2023-12-29T03:09:05;164239.13;;;1.87;100.00
45255;BME280;30989;52.078;21.014;2023-12-29T03:11:31;164249.78;;;1.91;100.00
45255;BME280;30989;52.078;21.014;2023-12-29T03:13:57;164241.81;;;1.88;100.00
45255;BME280;30989;52.078;21.014;2023-12-29T03:16:23;164243.13;;;1.88;100.00
45255;BME280;30989;52.078;21.014;2023-12-29T03:18:48;164229.81;;;1.83;100.00
45255;BME280;30989;52.078;21.014;2023-12-29T03:21:13;164235.16;;;1.85;100.00
45255;BME280;30989;52.078;21.014;2023-12-29T03:23:39;164219.16;;;1.79;100.00
45255;BME280;30989;52.078;21.014;2023-12-29T03:26:04;164237.81;;;1.86;100.00
45255;BME280;30989;52.078;21.014;2023-12-29T03:28:30;164239.13;;;1.87;100.00
45255;BME280;30989;52.078;21.014;2023-12-29T03:30:55;164217.84;;;1.79;100.00
45255;BME280;30989;52.078;21.014;2023-12-29T03:33:20;164231.16;;;1.84;100.00
45255;BME280;30989;52.078;21.014;2023-12-29T03:35:46;164231.16;;;1.84;100.00
45255;BME280;30989;52.078;21.014;2023-12-29T03:38:13;164228.50;;;1.83;100.00
45255;BME280;30989;52.078;21.014;2023-12-29T03:40:40;164196.53;;;1.71;100.00
45255;BME280;30989;52.078;21.014;2023-12-29T03:43:05;164227.16;;;1.82;100.00
45255;BME280;30989;52.078;21.014;2023-12-29T03:45:30;164215.19;;;1.78;100.00
45255;BME280;30989;52.078;21.014;2023-12-29T03:47:56;164220.50;;;1.80;100.00
45255;BME280;30989;52.078;21.014;2023-12-29T03:50:21;164217.84;;;1.79;100.00
45255;BME280;30989;52.078;21.014;2023-12-29T03:52:49;164217.84;;;1.79;100.00
45255;BME280;30989;52.078;21.014;2023-12-29T03:55:14;164213.84;;;1.77;100.00
45255;BME280;30989;52.078;21.014;2023-12-29T03:57:42;164207.19;;;1.75;100.00
45255;BME280;30989;52.078;21.014;2023-12-29T04:00:11;164191.22;;;1.69;100.00
45255;BME280;30989;52.078;21.014;2023-12-29T04:02:37;164209.84;;;1.76;100.00
45255;BME280;30989;52.078;21.014;2023-12-29T04:05:03;164187.22;;;1.67;100.00
45255;BME280;30989;52.078;21.014;2023-12-29T04:07:30;164203.19;;;1.73;100.00
45255;BME280;30989;52.078;21.014;2023-12-29T04:09:55;164223.16;;;1.81;100.00
45255;BME280;30989;52.078;21.014;2023-12-29T04:12:21;164227.16;;;1.82;100.00
45255;BME280;30989;52.078;21.014;2023-12-29T04:14:46;164236.47;;;1.86;100.00
45255;BME280;30989;52.078;21.014;2023-12-29T04:17:12;164241.81;;;1.88;100.00
45255;BME280;30989;52.078;21.014;2023-12-29T04:19:40;164247.13;;;1.90;100.00
45255;BME280;30989;52.078;21.014;2023-12-29T04:22:07;164237.81;;;1.86;100.00
45255;BME280;30989;52.078;21.014;2023-12-29T04:24:33;164260.44;;;1.95;100.00
45255;BME280;30989;52.078;21.014;2023-12-29T04:27:01;164247.13;;;1.90;100.00
45255;BME280;30989;52.078;21.014;2023-12-29T04:29:26;164272.44;;;2.00;100.00
45255;BME280;30989;52.078;21.014;2023-12-29T04:31:53;164279.09;;;2.02;100.00
45255;BME280;30989;52.078;21.014;2023-12-29T04:34:18;164277.75;;;2.02;100.00
45255;BME280;30989;52.078;21.014;2023-12-29T04:36:44;164287.06;;;2.05;100.00
45255;BME280;30989;52.078;21.014;2023-12-29T04:39:09;164275.09;;;2.01;100.00
45255;BME280;30989;52.078;21.014;2023-12-29T04:41:35;164289.75;;;2.06;100.00
45255;BME280;30989;52.078;21.014;2023-12-29T04:44:02;164284.41;;;2.04;100.00
45255;BME280;30989;52.078;21.014;2023-12-29T04:46:28;164279.09;;;2.02;100.00
45255;BME280;30989;52.078;21.014;2023-12-29T04:48:53;164261.78;;;1.96;100.00
45255;BME280;30989;52.078;21.014;2023-12-29T04:51:19;164280.41;;;2.03;100.00
45255;BME280;30989;52.078;21.014;2023-12-29T04:53:46;164287.06;;;2.05;100.00
45255;BME280;30989;52.078;21.014;2023-12-29T04:56:11;164293.72;;;2.08;100.00
45255;BME280;30989;52.078;21.014;2023-12-29T04:58:37;164303.06;;;2.11;100.00
45255;BME280;30989;52.078;21.014;2023-12-29T05:01:03;164300.38;;;2.10;100.00
45255;BME280;30989;52.078;21.014;2023-12-29T05:03:28;164320.38;;;2.18;100.00
45255;BME280;30989;52.078;21.014;2023-12-29T05:05:53;164337.69;;;2.24;100.00
45255;BME280;30989;52.078;21.014;2023-12-29T05:08:19;164341.69;;;2.26;100.00
45255;BME280;30989;52.078;21.014;2023-12-29T05:10:44;164372.31;;;2.38;100.00
45255;BME280;30989;52.078;21.014;2023-12-29T05:13:10;164385.63;;;2.43;100.00
45255;BME280;30989;52.078;21.014;2023-12-29T05:15:35;164400.28;;;2.48;100.00
45255;BME280;30989;52.078;21.014;2023-12-29T05:18:00;164414.94;;;2.54;100.00
45255;BME280;30989;52.078;21.014;2023-12-29T05:20:26;164436.25;;;2.62;100.00
45255;BME280;30989;52.078;21.014;2023-12-29T05:22:51;164460.22;;;2.71;100.00
45255;BME280;30989;52.078;21.014;2023-12-29T05:25:17;164482.88;;;2.80;100.00
45255;BME280;30989;52.078;21.014;2023-12-29T05:27:42;164472.22;;;2.76;100.00
45255;BME280;30989;52.078;21.014;2023-12-29T05:30:09;164513.53;;;2.91;100.00
45255;BME280;30989;52.078;21.014;2023-12-29T05:32:35;164529.50;;;2.98;100.00
45255;BME280;30989;52.078;21.014;2023-12-29T05:35:00;164556.16;;;3.08;100.00
45255;BME280;30989;52.078;21.014;2023-12-29T05:37:26;164572.16;;;3.14;100.00
45255;BME280;30989;52.078;21.014;2023-12-29T05:39:51;164578.81;;;3.16;100.00
45255;BME280;30989;52.078;21.014;2023-12-29T05:42:17;164593.47;;;3.22;100.00
45255;BME280;30989;52.078;21.014;2023-12-29T05:44:42;164601.47;;;3.25;100.00
45255;BME280;30989;52.078;21.014;2023-12-29T05:47:09;164604.13;;;3.26;100.00
45255;BME280;30989;52.078;21.014;2023-12-29T05:49:34;164630.78;;;3.36;100.00
45255;BME280;30989;52.078;21.014;2023-12-29T05:52:05;164636.13;;;3.38;100.00
45255;BME280;30989;52.078;21.014;2023-12-29T05:54:30;164645.47;;;3.42;100.00
45255;BME280;30989;52.078;21.014;2023-12-29T05:56:56;164665.47;;;3.49;100.00
45255;BME280;30989;52.078;21.014;2023-12-29T05:59:21;164660.13;;;3.47;100.00
45255;BME280;30989;52.078;21.014;2023-12-29T06:01:46;164694.78;;;3.61;100.00
45255;BME280;30989;52.078;21.014;2023-12-29T06:04:12;164698.78;;;3.62;100.00
45255;BME280;30989;52.078;21.014;2023-12-29T06:06:37;164700.13;;;3.63;100.00
45255;BME280;30989;52.078;21.014;2023-12-29T06:09:03;164708.13;;;3.66;100.00
45255;BME280;30989;52.078;21.014;2023-12-29T06:11:28;164716.09;;;3.69;100.00
45255;BME280;30989;52.078;21.014;2023-12-29T06:13:54;164717.44;;;3.69;100.00
45255;BME280;30989;52.078;21.014;2023-12-29T06:16:20;164712.09;;;3.67;100.00
45255;BME280;30989;52.078;21.014;2023-12-29T06:18:46;164718.78;;;3.70;100.00
45255;BME280;30989;52.078;21.014;2023-12-29T06:21:12;164721.44;;;3.71;100.00
45255;BME280;30989;52.078;21.014;2023-12-29T06:23:38;164729.44;;;3.74;100.00
45255;BME280;30989;52.078;21.014;2023-12-29T06:26:03;164728.09;;;3.73;100.00
45255;BME280;30989;52.078;21.014;2023-12-29T06:28:29;164730.78;;;3.74;100.00
45255;BME280;30989;52.078;21.014;2023-12-29T06:30:54;164717.44;;;3.69;100.00
45255;BME280;30989;52.078;21.014;2023-12-29T06:33:19;164724.09;;;3.72;100.00
45255;BME280;30989;52.078;21.014;2023-12-29T06:35:48;164721.44;;;3.71;100.00
45255;BME280;30989;52.078;21.014;2023-12-29T06:38:14;164713.44;;;3.68;100.00
45255;BME280;30989;52.078;21.014;2023-12-29T06:40:40;164713.44;;;3.68;100.00
45255;BME280;30989;52.078;21.014;2023-12-29T06:43:05;164713.44;;;3.68;100.00
45255;BME280;30989;52.078;21.014;2023-12-29T06:45:31;164709.44;;;3.66;100.00
45255;BME280;30989;52.078;21.014;2023-12-29T06:47:56;164702.78;;;3.64;100.00
45255;BME280;30989;52.078;21.014;2023-12-29T06:50:22;164693.44;;;3.60;100.00
45255;BME280;30989;52.078;21.014;2023-12-29T06:52:47;164686.78;;;3.58;100.00
45255;BME280;30989;52.078;21.014;2023-12-29T06:55:13;164677.44;;;3.54;100.00
45255;BME280;30989;52.078;21.014;2023-12-29T06:57:38;164676.13;;;3.53;100.00
45255;BME280;30989;52.078;21.014;2023-12-29T07:00:06;164660.13;;;3.47;100.00
45255;BME280;30989;52.078;21.014;2023-12-29T07:02:32;164662.78;;;3.48;100.00
45255;BME280;30989;52.078;21.014;2023-12-29T07:04:57;164656.13;;;3.46;100.00
45255;BME280;30989;52.078;21.014;2023-12-29T07:07:24;164650.78;;;3.44;100.00
45255;BME280;30989;52.078;21.014;2023-12-29T07:09:49;164652.13;;;3.44;100.00
45255;BME280;30989;52.078;21.014;2023-12-29T07:12:17;164646.78;;;3.42;100.00
45255;BME280;30989;52.078;21.014;2023-12-29T07:14:43;164658.78;;;3.47;100.00
45255;BME280;30989;52.078;21.014;2023-12-29T07:17:08;164650.78;;;3.44;100.00
45255;BME280;30989;52.078;21.014;2023-12-29T07:19:34;164672.13;;;3.52;100.00
45255;BME280;30989;52.078;21.014;2023-12-29T07:22:03;164652.13;;;3.44;100.00
45255;BME280;30989;52.078;21.014;2023-12-29T07:24:28;164693.44;;;3.60;100.00
45255;BME280;30989;52.078;21.014;2023-12-29T07:26:54;164706.78;;;3.65;100.00
45255;BME280;30989;52.078;21.014;2023-12-29T07:29:19;164718.78;;;3.70;100.00
45255;BME280;30989;52.078;21.014;2023-12-29T07:31:45;164726.78;;;3.73;100.00
45255;BME280;30989;52.078;21.014;2023-12-29T07:34:10;164740.09;;;3.78;100.00
45255;BME280;30989;52.078;21.014;2023-12-29T07:36:39;164749.44;;;3.81;100.00
45255;BME280;30989;52.078;21.014;2023-12-29T07:39:06;164766.78;;;3.88;100.00
45255;BME280;30989;52.078;21.014;2023-12-29T07:41:31;164781.44;;;3.94;100.00
45255;BME280;30989;52.078;21.014;2023-12-29T07:43:57;164794.78;;;3.99;100.00
45255;BME280;30989;52.078;21.014;2023-12-29T07:46:26;164802.78;;;4.02;100.00
45255;BME280;30989;52.078;21.014;2023-12-29T07:48:52;164810.78;;;4.05;100.00
45255;BME280;30989;52.078;21.014;2023-12-29T07:51:18;164809.44;;;4.04;100.00
45255;BME280;30989;52.078;21.014;2023-12-29T07:53:43;164810.78;;;4.05;100.00
45255;BME280;30989;52.078;21.014;2023-12-29T07:56:10;164800.09;;;4.01;100.00
45255;BME280;30989;52.078;21.014;2023-12-29T07:58:36;164796.09;;;3.99;100.00
45255;BME280;30989;52.078;21.014;2023-12-29T08:01:01;164798.78;;;4.00;100.00
45255;BME280;30989;52.078;21.014;2023-12-29T08:03:27;164798.78;;;4.00;100.00
45255;BME280;30989;52.078;21.014;2023-12-29T08:05:52;164796.09;;;3.99;100.00
45255;BME280;30989;52.078;21.014;2023-12-29T08:08:17;164813.44;;;4.06;100.00
45255;BME280;30989;52.078;21.014;2023-12-29T08:10:43;164814.78;;;4.06;100.00
45255;BME280;30989;52.078;21.014;2023-12-29T08:13:08;164806.78;;;4.03;100.00
45255;BME280;30989;52.078;21.014;2023-12-29T08:15:35;164804.13;;;4.02;100.00
45255;BME280;30989;52.078;21.014;2023-12-29T08:18:00;164816.13;;;4.07;100.00
45255;BME280;30989;52.078;21.014;2023-12-29T08:20:26;164829.44;;;4.12;100.00
45255;BME280;30989;52.078;21.014;2023-12-29T08:22:53;164846.78;;;4.18;100.00
45255;BME280;30989;52.078;21.014;2023-12-29T08:25:18;164853.44;;;4.21;100.00
45255;BME280;30989;52.078;21.014;2023-12-29T08:27:43;164885.47;;;4.33;100.00
45255;BME280;30989;52.078;21.014;2023-12-29T08:30:09;164902.81;;;4.40;100.00
45255;BME280;30989;52.078;21.014;2023-12-29T08:32:35;164924.16;;;4.48;100.00
45255;BME280;30989;52.078;21.014;2023-12-29T08:35:00;164934.81;;;4.52;100.00
45255;BME280;30989;52.078;21.014;2023-12-29T08:37:25;164940.16;;;4.54;100.00
45255;BME280;30989;52.078;21.014;2023-12-29T08:39:51;164953.50;;;4.59;100.00
45255;BME280;30989;52.078;21.014;2023-12-29T08:42:16;164964.16;;;4.63;100.00
45255;BME280;30989;52.078;21.014;2023-12-29T08:44:42;164985.50;;;4.71;100.00
45255;BME280;30989;52.078;21.014;2023-12-29T08:47:07;165004.19;;;4.78;100.00
45255;BME280;30989;52.078;21.014;2023-12-29T08:49:37;165012.19;;;4.81;100.00
45255;BME280;30989;52.078;21.014;2023-12-29T08:52:03;165025.53;;;4.86;100.00
45255;BME280;30989;52.078;21.014;2023-12-29T08:54:29;165044.22;;;4.94;100.00
45255;BME280;30989;52.078;21.014;2023-12-29T08:56:54;165038.88;;;4.92;100.00
45255;BME280;30989;52.078;21.014;2023-12-29T08:59:20;165065.56;;;5.02;100.00
45255;BME280;30989;52.078;21.014;2023-12-29T09:01:45;165096.25;;;5.13;100.00
45255;BME280;30989;52.078;21.014;2023-12-29T09:04:11;165100.25;;;5.15;100.00
45255;BME280;30989;52.078;21.014;2023-12-29T09:06:36;165125.66;;;5.25;100.00
45255;BME280;30989;52.078;21.014;2023-12-29T09:09:01;165145.69;;;5.32;100.00
45255;BME280;30989;52.078;21.014;2023-12-29T09:11:27;165177.72;;;5.44;100.00
45255;BME280;30989;52.078;21.014;2023-12-29T09:13:52;165199.09;;;5.53;100.00
45255;BME280;30989;52.078;21.014;2023-12-29T09:16:18;165215.09;;;5.59;100.00
45255;BME280;30989;52.078;21.014;2023-12-29T09:18:43;165223.09;;;5.62;100.00
45255;BME280;30989;52.078;21.014;2023-12-29T09:21:09;165248.47;;;5.71;100.00
45255;BME280;30989;52.078;21.014;2023-12-29T09:23:34;165268.50;;;5.79;100.00
45255;BME280;30989;52.078;21.014;2023-12-29T09:26:02;165287.19;;;5.86;100.00
45255;BME280;30989;52.078;21.014;2023-12-29T09:28:28;165292.53;;;5.88;100.00
45255;BME280;30989;52.078;21.014;2023-12-29T09:30:53;165309.94;;;5.95;100.00
45255;BME280;30989;52.078;21.014;2023-12-29T09:33:19;165321.97;;;5.99;100.00
45255;BME280;30989;52.078;21.014;2023-12-29T09:35:44;165332.66;;;6.03;100.00
45255;BME280;30989;52.078;21.014;2023-12-29T09:38:10;165327.31;;;6.01;100.00
45255;BME280;30989;52.078;21.014;2023-12-29T09:40:36;165338.00;;;6.05;100.00
45255;BME280;30989;52.078;21.014;2023-12-29T09:43:02;165350.00;;;6.10;100.00
45255;BME280;30989;52.078;21.014;2023-12-29T09:45:28;165356.69;;;6.12;100.00
45255;BME280;30989;52.078;21.014;2023-12-29T09:47:54;165348.66;;;6.09;100.00
45255;BME280;30989;52.078;21.014;2023-12-29T09:50:22;165362.03;;;6.14;100.00
45255;BME280;30989;52.078;21.014;2023-12-29T09:52:48;165380.72;;;6.22;100.00
45255;BME280;30989;52.078;21.014;2023-12-29T09:55:17;165399.41;;;6.29;100.00
45255;BME280;30989;52.078;21.014;2023-12-29T09:57:43;165418.13;;;6.36;100.00
45255;BME280;30989;52.078;21.014;2023-12-29T10:00:15;165435.47;;;6.42;100.00
45255;BME280;30989;52.078;21.014;2023-12-29T10:02:41;165459.53;;;6.52;100.00
45255;BME280;30989;52.078;21.014;2023-12-29T10:05:07;165479.56;;;6.59;100.00
45255;BME280;30989;52.078;21.014;2023-12-29T10:07:38;165518.31;;;6.74;100.00
45255;BME280;30989;52.078;21.014;2023-12-29T10:10:05;165570.41;;;6.94;100.00
45255;BME280;30989;52.078;21.014;2023-12-29T10:12:36;165610.50;;;7.09;100.00
45255;BME280;30989;52.078;21.014;2023-12-29T10:15:19;165645.25;;;7.22;100.00
45255;BME280;30989;52.078;21.014;2023-12-29T10:20:35;165720.09;;;7.51;100.00
45255;BME280;30989;52.078;21.014;2023-12-29T10:23:10;165736.13;;;7.57;100.00
45255;BME280;30989;52.078;21.014;2023-12-29T10:25:39;165784.25;;;7.75;100.00
45255;BME280;30989;52.078;21.014;2023-12-29T10:28:09;165845.75;;;7.98;100.00
45255;BME280;30989;52.078;21.014;2023-12-29T10:30:35;165928.66;;;8.30;100.00
45255;BME280;30989;52.078;21.014;2023-12-29T10:33:00;166004.94;;;8.59;100.00
45255;BME280;30989;52.078;21.014;2023-12-29T10:35:32;166045.09;;;8.74;100.00
45255;BME280;30989;52.078;21.014;2023-12-29T10:38:10;166089.22;;;8.91;100.00
45255;BME280;30989;52.078;21.014;2023-12-29T10:40:36;166107.97;;;8.98;100.00
45255;BME280;30989;52.078;21.014;2023-12-29T10:43:01;166079.88;;;8.87;100.00
45255;BME280;30989;52.078;21.014;2023-12-29T10:45:32;166067.81;;;8.83;100.00
45255;BME280;30989;52.078;21.014;2023-12-29T10:48:01;166031.69;;;8.69;100.00
45255;BME280;30989;52.078;21.014;2023-12-29T10:50:26;166021.00;;;8.65;100.00
45255;BME280;30989;52.078;21.014;2023-12-29T10:53:16;165987.56;;;8.52;100.00
45255;BME280;30989;52.078;21.014;2023-12-29T10:55:44;165970.16;;;8.46;100.00
45255;BME280;30989;52.078;21.014;2023-12-29T10:58:09;165950.09;;;8.38;100.00
45255;BME280;30989;52.078;21.014;2023-12-29T11:00:35;165942.09;;;8.35;100.00
45255;BME280;30989;52.078;21.014;2023-12-29T11:03:00;165936.75;;;8.33;100.00
45255;BME280;30989;52.078;21.014;2023-12-29T11:05:26;165960.81;;;8.42;100.00
45255;BME280;30989;52.078;21.014;2023-12-29T11:07:54;166017.00;;;8.63;100.00
45255;BME280;30989;52.078;21.014;2023-12-29T11:10:20;166113.31;;;9.00;100.00
45255;BME280;30989;52.078;21.014;2023-12-29T11:12:47;166140.06;;;9.10;100.00
45255;BME280;30989;52.078;21.014;2023-12-29T11:15:14;166138.72;;;9.10;100.00
45255;BME280;30989;52.078;21.014;2023-12-29T11:17:41;166121.34;;;9.03;100.00
45255;BME280;30989;52.078;21.014;2023-12-29T11:20:17;166093.25;;;8.92;100.00
45255;BME280;30989;52.078;21.014;2023-12-29T11:22:43;166081.19;;;8.88;100.00
45255;BME280;30989;52.078;21.014;2023-12-29T11:25:09;166067.81;;;8.83;100.00
45255;BME280;30989;52.078;21.014;2023-12-29T11:27:36;165990.25;;;8.53;100.00
45255;BME280;30989;52.078;21.014;2023-12-29T11:30:03;166043.75;;;8.73;100.00
45255;BME280;30989;52.078;21.014;2023-12-29T11:32:41;166034.38;;;8.70;100.00
45255;BME280;30989;52.078;21.014;2023-12-29T11:35:20;166035.72;;;8.70;100.00
45255;BME280;30989;52.078;21.014;2023-12-29T11:38:11;166039.72;;;8.72;100.00
45255;BME280;30989;52.078;21.014;2023-12-29T11:40:46;166061.13;;;8.80;100.00
45255;BME280;30989;52.078;21.014;2023-12-29T11:43:17;166075.84;;;8.86;100.00
45255;BME280;30989;52.078;21.014;2023-12-29T11:45:43;166070.50;;;8.84;100.00
45255;BME280;30989;52.078;21.014;2023-12-29T11:48:10;166091.91;;;8.92;100.00
45255;BME280;30989;52.078;21.014;2023-12-29T11:50:38;166091.91;;;8.92;100.00
45255;BME280;30989;52.078;21.014;2023-12-29T11:53:08;166093.25;;;8.92;100.00
45255;BME280;30989;52.078;21.014;2023-12-29T11:55:39;166091.91;;;8.92;100.00
45255;BME280;30989;52.078;21.014;2023-12-29T11:58:23;166083.88;;;8.89;100.00
45255;BME280;30989;52.078;21.014;2023-12-29T12:00:49;166075.84;;;8.86;100.00
45255;BME280;30989;52.078;21.014;2023-12-29T12:03:23;166091.91;;;8.92;100.00
45255;BME280;30989;52.078;21.014;2023-12-29T12:05:49;166095.91;;;8.93;100.00
45255;BME280;30989;52.078;21.014;2023-12-29T12:08:32;166089.22;;;8.91;100.00
45255;BME280;30989;52.078;21.014;2023-12-29T12:13:54;166090.56;;;8.91;100.00
45255;BME280;30989;52.078;21.014;2023-12-29T12:19:11;166095.91;;;8.93;100.00
45255;BME280;30989;52.078;21.014;2023-12-29T12:21:37;166118.66;;;9.02;100.00
45255;BME280;30989;52.078;21.014;2023-12-29T12:24:07;166101.28;;;8.95;100.00
45255;BME280;30989;52.078;21.014;2023-12-29T12:26:33;166121.34;;;9.03;100.00
45255;BME280;30989;52.078;21.014;2023-12-29T12:28:59;166124.00;;;9.04;100.00
45255;BME280;30989;52.078;21.014;2023-12-29T12:31:25;166120.00;;;9.02;100.00
45255;BME280;30989;52.078;21.014;2023-12-29T12:33:55;166110.63;;;8.99;100.00
45255;BME280;30989;52.078;21.014;2023-12-29T12:36:23;166106.63;;;8.97;100.00
45255;BME280;30989;52.078;21.014;2023-12-29T12:38:54;166103.94;;;8.96;100.00
45255;BME280;30989;52.078;21.014;2023-12-29T12:41:25;166111.97;;;8.99;100.00
45255;BME280;30989;52.078;21.014;2023-12-29T12:46:33;166121.34;;;9.03;100.00
45255;BME280;30989;52.078;21.014;2023-12-29T12:48:59;166113.31;;;9.00;100.00
45255;BME280;30989;52.078;21.014;2023-12-29T12:51:25;166110.63;;;8.99;100.00